sensor_id;sensor_type;location;lat;lon;timestamp;temperature;humidity
13707;DHT22;6925;47.816;13.072;2022-09-09T00:10:58;17.60;70.10
13707;DHT22;6925;47.816;13.072;2022-09-09T00:13:30;17.60;70.20
13707;DHT22;6925;47.816;13.072;2022-09-09T01:17:17;17.60;70.40
13707;DHT22;6925;47.816;13.072;2022-09-09T01:22:36;17.60;70.80
13707;DHT22;6925;47.816;13.072;2022-09-09T01:28:16;17.50;70.40
13707;DHT22;6925;47.816;13.072;2022-09-09T01:30:46;17.50;70.80
13707;DHT22;6925;47.816;13.072;2022-09-09T01:33:15;17.60;71.10
13707;DHT22;6925;47.816;13.072;2022-09-09T01:35:47;17.60;71.20
13707;DHT22;6925;47.816;13.072;2022-09-09T01:38:22;17.60;71.50
13707;DHT22;6925;47.816;13.072;2022-09-09T01:40:51;17.60;71.40
13707;DHT22;6925;47.816;13.072;2022-09-09T01:43:21;17.70;71.30
13707;DHT22;6925;47.816;13.072;2022-09-09T01:45:52;17.70;71.20
13707;DHT22;6925;47.816;13.072;2022-09-09T01:48:21;17.70;71.10
13707;DHT22;6925;47.816;13.072;2022-09-09T01:50:49;17.70;71.30
13707;DHT22;6925;47.816;13.072;2022-09-09T01:53:18;17.70;71.20
13707;DHT22;6925;47.816;13.072;2022-09-09T01:55:58;17.80;71.20
13707;DHT22;6925;47.816;13.072;2022-09-09T01:59:21;17.80;71.20
13707;DHT22;6925;47.816;13.072;2022-09-09T02:12:00;17.60;70.30
13707;DHT22;6925;47.816;13.072;2022-09-09T02:22:18;17.60;71.10
13707;DHT22;6925;47.816;13.072;2022-09-09T02:25:28;17.60;71.10
13707;DHT22;6925;47.816;13.072;2022-09-09T02:44:39;17.60;71.10
13707;DHT22;6925;47.816;13.072;2022-09-09T03:55:53;17.50;71.60
13707;DHT22;6925;47.816;13.072;2022-09-09T07:30:58;18.60;72.70
13707;DHT22;6925;47.816;13.072;2022-09-09T07:33:29;18.70;72.80
13707;DHT22;6925;47.816;13.072;2022-09-09T07:36:06;18.60;72.10
13707;DHT22;6925;47.816;13.072;2022-09-09T07:38:50;18.70;72.50
13707;DHT22;6925;47.816;13.072;2022-09-09T07:42:24;18.70;71.90
13707;DHT22;6925;47.816;13.072;2022-09-09T07:50:27;18.40;72.20
13707;DHT22;6925;47.816;13.072;2022-09-09T07:52:55;18.40;72.10
13707;DHT22;6925;47.816;13.072;2022-09-09T07:55:25;18.40;72.30
13707;DHT22;6925;47.816;13.072;2022-09-09T07:57:54;18.40;72.40
13707;DHT22;6925;47.816;13.072;2022-09-09T08:00:22;18.40;73.20
13707;DHT22;6925;47.816;13.072;2022-09-09T08:02:54;18.40;73.50
13707;DHT22;6925;47.816;13.072;2022-09-09T08:05:28;18.40;74.40
13707;DHT22;6925;47.816;13.072;2022-09-09T08:08:08;18.40;74.70
13707;DHT22;6925;47.816;13.072;2022-09-09T08:10:36;18.50;75.70
13707;DHT22;6925;47.816;13.072;2022-09-09T08:13:04;18.50;75.80
13707;DHT22;6925;47.816;13.072;2022-09-09T08:15:31;18.50;75.90
13707;DHT22;6925;47.816;13.072;2022-09-09T08:18:00;18.50;75.70
13707;DHT22;6925;47.816;13.072;2022-09-09T08:20:29;18.50;75.20
13707;DHT22;6925;47.816;13.072;2022-09-09T08:23:01;18.50;75.60
13707;DHT22;6925;47.816;13.072;2022-09-09T08:25:30;18.40;76.10
13707;DHT22;6925;47.816;13.072;2022-09-09T08:28:11;18.30;76.90
13707;DHT22;6925;47.816;13.072;2022-09-09T08:30:39;18.40;77.80
13707;DHT22;6925;47.816;13.072;2022-09-09T08:33:09;18.50;77.90
13707;DHT22;6925;47.816;13.072;2022-09-09T08:39:07;18.60;77.80
13707;DHT22;6925;47.816;13.072;2022-09-09T08:42:05;18.50;76.50
13707;DHT22;6925;47.816;13.072;2022-09-09T08:44:53;18.40;77.00
13707;DHT22;6925;47.816;13.072;2022-09-09T08:47:37;18.40;77.50
13707;DHT22;6925;47.816;13.072;2022-09-09T08:50:36;18.30;78.40
13707;DHT22;6925;47.816;13.072;2022-09-09T08:56:02;18.50;78.30
13707;DHT22;6925;47.816;13.072;2022-09-09T08:58:45;18.60;76.80
13707;DHT22;6925;47.816;13.072;2022-09-09T09:08:15;18.60;78.40
13707;DHT22;6925;47.816;13.072;2022-09-09T09:47:57;18.90;79.20
13707;DHT22;6925;47.816;13.072;2022-09-09T09:58:17;19.00;79.80
13707;DHT22;6925;47.816;13.072;2022-09-09T10:03:25;19.00;80.10
13707;DHT22;6925;47.816;13.072;2022-09-09T10:05:54;18.90;79.90
13707;DHT22;6925;47.816;13.072;2022-09-09T10:08:22;18.80;79.90
13707;DHT22;6925;47.816;13.072;2022-09-09T10:13:49;18.80;81.10
13707;DHT22;6925;47.816;13.072;2022-09-09T10:16:38;18.80;80.80
13707;DHT22;6925;47.816;13.072;2022-09-09T10:19:15;18.80;80.30
13707;DHT22;6925;47.816;13.072;2022-09-09T10:22:01;18.90;79.70
13707;DHT22;6925;47.816;13.072;2022-09-09T10:27:25;18.80;80.70
13707;DHT22;6925;47.816;13.072;2022-09-09T10:30:12;18.80;81.30
13707;DHT22;6925;47.816;13.072;2022-09-09T10:32:54;18.90;82.50
13707;DHT22;6925;47.816;13.072;2022-09-09T10:39:24;19.00;81.90
13707;DHT22;6925;47.816;13.072;2022-09-09T10:45:38;18.90;80.70
13707;DHT22;6925;47.816;13.072;2022-09-09T10:48:31;18.80;81.10
13707;DHT22;6925;47.816;13.072;2022-09-09T10:54:36;18.90;81.50
13707;DHT22;6925;47.816;13.072;2022-09-09T10:57:12;18.80;80.50
13707;DHT22;6925;47.816;13.072;2022-09-09T10:59:52;18.70;81.60
13707;DHT22;6925;47.816;13.072;2022-09-09T11:02:29;18.80;81.50
13707;DHT22;6925;47.816;13.072;2022-09-09T11:05:10;18.90;82.20
13707;DHT22;6925;47.816;13.072;2022-09-09T11:08:01;19.00;81.40
13707;DHT22;6925;47.816;13.072;2022-09-09T11:10:40;19.00;81.80
13707;DHT22;6925;47.816;13.072;2022-09-09T11:13:15;19.10;80.40
13707;DHT22;6925;47.816;13.072;2022-09-09T11:15:49;19.00;78.70
13707;DHT22;6925;47.816;13.072;2022-09-09T11:20:57;19.00;79.30
13707;DHT22;6925;47.816;13.072;2022-09-09T11:23:29;19.00;80.40
13707;DHT22;6925;47.816;13.072;2022-09-09T11:26:10;19.00;79.30
13707;DHT22;6925;47.816;13.072;2022-09-09T11:28:50;18.80;76.60
13707;DHT22;6925;47.816;13.072;2022-09-09T11:31:43;18.80;78.30
13707;DHT22;6925;47.816;13.072;2022-09-09T11:43:33;18.70;78.30
13707;DHT22;6925;47.816;13.072;2022-09-09T11:52:11;19.10;79.80
13707;DHT22;6925;47.816;13.072;2022-09-09T11:54:47;19.20;80.00
13707;DHT22;6925;47.816;13.072;2022-09-09T11:57:35;19.20;79.40
13707;DHT22;6925;47.816;13.072;2022-09-09T12:05:20;19.40;79.70
13707;DHT22;6925;47.816;13.072;2022-09-09T12:08:16;19.40;79.10
13707;DHT22;6925;47.816;13.072;2022-09-09T12:11:01;19.40;79.10
13707;DHT22;6925;47.816;13.072;2022-09-09T12:13:53;19.30;78.00
13707;DHT22;6925;47.816;13.072;2022-09-09T12:16:36;19.30;78.40
13707;DHT22;6925;47.816;13.072;2022-09-09T12:19:59;19.20;78.50
13707;DHT22;6925;47.816;13.072;2022-09-09T12:28:55;19.10;79.90
13707;DHT22;6925;47.816;13.072;2022-09-09T12:31:27;19.00;79.60
13707;DHT22;6925;47.816;13.072;2022-09-09T12:34:06;19.00;80.70
13707;DHT22;6925;47.816;13.072;2022-09-09T12:36:37;19.00;80.40
13707;DHT22;6925;47.816;13.072;2022-09-09T12:39:17;18.90;79.80
13707;DHT22;6925;47.816;13.072;2022-09-09T12:41:52;18.80;79.80
13707;DHT22;6925;47.816;13.072;2022-09-09T12:44:24;18.80;80.70
13707;DHT22;6925;47.816;13.072;2022-09-09T12:46:54;18.90;81.20
13707;DHT22;6925;47.816;13.072;2022-09-09T12:49:36;18.90;81.50
13707;DHT22;6925;47.816;13.072;2022-09-09T12:52:28;18.90;81.60
13707;DHT22;6925;47.816;13.072;2022-09-09T12:54:59;19.00;81.40
13707;DHT22;6925;47.816;13.072;2022-09-09T12:57:33;19.00;81.50
13707;DHT22;6925;47.816;13.072;2022-09-09T13:00:14;19.00;81.00
13707;DHT22;6925;47.816;13.072;2022-09-09T13:02:52;19.00;80.60
13707;DHT22;6925;47.816;13.072;2022-09-09T13:05:23;18.90;81.20
13707;DHT22;6925;47.816;13.072;2022-09-09T13:07:51;18.80;81.20
13707;DHT22;6925;47.816;13.072;2022-09-09T13:10:27;18.80;81.50
13707;DHT22;6925;47.816;13.072;2022-09-09T13:12:55;18.80;80.50
13707;DHT22;6925;47.816;13.072;2022-09-09T13:15:26;18.80;80.50
13707;DHT22;6925;47.816;13.072;2022-09-09T13:17:57;18.80;81.50
13707;DHT22;6925;47.816;13.072;2022-09-09T13:20:27;18.80;81.30
13707;DHT22;6925;47.816;13.072;2022-09-09T13:23:26;18.80;81.10
13707;DHT22;6925;47.816;13.072;2022-09-09T13:26:22;18.80;81.70
13707;DHT22;6925;47.816;13.072;2022-09-09T13:28:53;18.80;81.10
13707;DHT22;6925;47.816;13.072;2022-09-09T13:31:41;18.80;81.60
13707;DHT22;6925;47.816;13.072;2022-09-09T13:34:13;18.80;81.90
13707;DHT22;6925;47.816;13.072;2022-09-09T13:36:46;18.90;82.20
13707;DHT22;6925;47.816;13.072;2022-09-09T13:39:16;18.90;81.80
13707;DHT22;6925;47.816;13.072;2022-09-09T13:41:47;18.90;81.70
13707;DHT22;6925;47.816;13.072;2022-09-09T13:44:20;18.80;81.10
13707;DHT22;6925;47.816;13.072;2022-09-09T13:46:58;18.70;81.10
13707;DHT22;6925;47.816;13.072;2022-09-09T13:49:28;18.70;81.80
13707;DHT22;6925;47.816;13.072;2022-09-09T13:52:04;18.70;81.80
13707;DHT22;6925;47.816;13.072;2022-09-09T13:54:36;18.60;82.10
13707;DHT22;6925;47.816;13.072;2022-09-09T13:57:15;18.60;82.00
13707;DHT22;6925;47.816;13.072;2022-09-09T13:59:44;18.60;81.50
13707;DHT22;6925;47.816;13.072;2022-09-09T14:02:15;18.50;81.70
13707;DHT22;6925;47.816;13.072;2022-09-09T14:04:43;18.50;82.20
13707;DHT22;6925;47.816;13.072;2022-09-09T14:07:12;18.40;82.50
13707;DHT22;6925;47.816;13.072;2022-09-09T14:09:43;18.40;82.30
13707;DHT22;6925;47.816;13.072;2022-09-09T14:12:12;18.30;83.10
13707;DHT22;6925;47.816;13.072;2022-09-09T14:14:40;18.40;83.80
13707;DHT22;6925;47.816;13.072;2022-09-09T14:17:08;18.40;83.30
13707;DHT22;6925;47.816;13.072;2022-09-09T14:19:36;18.40;83.40
13707;DHT22;6925;47.816;13.072;2022-09-09T14:22:03;18.40;83.50
13707;DHT22;6925;47.816;13.072;2022-09-09T14:24:31;18.40;83.60
13707;DHT22;6925;47.816;13.072;2022-09-09T14:27:02;18.50;83.60
13707;DHT22;6925;47.816;13.072;2022-09-09T14:29:31;18.40;82.80
13707;DHT22;6925;47.816;13.072;2022-09-09T14:32:02;18.30;82.40
13707;DHT22;6925;47.816;13.072;2022-09-09T14:34:29;18.30;83.20
13707;DHT22;6925;47.816;13.072;2022-09-09T14:37:00;18.30;83.80
13707;DHT22;6925;47.816;13.072;2022-09-09T14:39:28;18.20;84.30
13707;DHT22;6925;47.816;13.072;2022-09-09T14:41:56;18.20;84.00
13707;DHT22;6925;47.816;13.072;2022-09-09T14:44:23;18.20;84.00
13707;DHT22;6925;47.816;13.072;2022-09-09T14:46:53;18.20;85.30
13707;DHT22;6925;47.816;13.072;2022-09-09T14:49:20;18.20;85.60
13707;DHT22;6925;47.816;13.072;2022-09-09T14:51:48;18.30;85.80
13707;DHT22;6925;47.816;13.072;2022-09-09T14:54:15;18.30;85.10
13707;DHT22;6925;47.816;13.072;2022-09-09T14:56:42;18.30;85.20
13707;DHT22;6925;47.816;13.072;2022-09-09T14:59:10;18.30;85.10
13707;DHT22;6925;47.816;13.072;2022-09-09T15:01:38;18.40;85.00
13707;DHT22;6925;47.816;13.072;2022-09-09T15:04:10;18.30;84.40
13707;DHT22;6925;47.816;13.072;2022-09-09T15:06:39;18.20;84.00
13707;DHT22;6925;47.816;13.072;2022-09-09T15:09:08;18.10;83.90
13707;DHT22;6925;47.816;13.072;2022-09-09T15:11:37;18.10;84.50
13707;DHT22;6925;47.816;13.072;2022-09-09T15:14:05;18.00;84.10
13707;DHT22;6925;47.816;13.072;2022-09-09T15:16:33;18.00;84.40
13707;DHT22;6925;47.816;13.072;2022-09-09T15:19:02;18.00;84.20
13707;DHT22;6925;47.816;13.072;2022-09-09T15:21:33;18.00;83.80
13707;DHT22;6925;47.816;13.072;2022-09-09T15:24:01;18.00;84.30
13707;DHT22;6925;47.816;13.072;2022-09-09T15:26:29;18.00;83.50
13707;DHT22;6925;47.816;13.072;2022-09-09T15:28:57;18.00;83.60
13707;DHT22;6925;47.816;13.072;2022-09-09T15:31:27;18.00;83.30
13707;DHT22;6925;47.816;13.072;2022-09-09T15:33:57;18.00;83.80
13707;DHT22;6925;47.816;13.072;2022-09-09T15:36:27;18.10;83.70
13707;DHT22;6925;47.816;13.072;2022-09-09T15:39:09;18.10;84.40
13707;DHT22;6925;47.816;13.072;2022-09-09T15:41:38;18.20;85.70
13707;DHT22;6925;47.816;13.072;2022-09-09T15:44:06;18.40;84.90
13707;DHT22;6925;47.816;13.072;2022-09-09T15:46:35;18.40;84.40
13707;DHT22;6925;47.816;13.072;2022-09-09T15:49:04;18.50;84.60
13707;DHT22;6925;47.816;13.072;2022-09-09T15:51:32;18.50;84.30
13707;DHT22;6925;47.816;13.072;2022-09-09T15:54:00;18.60;84.20
13707;DHT22;6925;47.816;13.072;2022-09-09T15:56:31;18.60;83.50
13707;DHT22;6925;47.816;13.072;2022-09-09T15:59:01;18.60;82.70
13707;DHT22;6925;47.816;13.072;2022-09-09T16:01:30;18.50;82.80
13707;DHT22;6925;47.816;13.072;2022-09-09T16:03:59;18.50;83.20
13707;DHT22;6925;47.816;13.072;2022-09-09T16:06:28;18.50;82.90
13707;DHT22;6925;47.816;13.072;2022-09-09T16:08:56;18.50;83.00
13707;DHT22;6925;47.816;13.072;2022-09-09T16:11:31;18.50;82.00
13707;DHT22;6925;47.816;13.072;2022-09-09T16:13:59;18.40;82.30
13707;DHT22;6925;47.816;13.072;2022-09-09T16:16:28;18.40;82.10
13707;DHT22;6925;47.816;13.072;2022-09-09T16:18:57;18.30;81.50
13707;DHT22;6925;47.816;13.072;2022-09-09T16:21:27;18.20;81.60
13707;DHT22;6925;47.816;13.072;2022-09-09T16:23:55;18.20;81.50
13707;DHT22;6925;47.816;13.072;2022-09-09T16:26:25;18.20;81.90
13707;DHT22;6925;47.816;13.072;2022-09-09T16:28:54;18.10;81.40
13707;DHT22;6925;47.816;13.072;2022-09-09T16:31:24;18.10;81.00
13707;DHT22;6925;47.816;13.072;2022-09-09T16:33:52;18.10;80.60
13707;DHT22;6925;47.816;13.072;2022-09-09T16:36:21;18.00;80.70
13707;DHT22;6925;47.816;13.072;2022-09-09T16:38:52;18.00;81.80
13707;DHT22;6925;47.816;13.072;2022-09-09T16:41:23;18.10;82.80
13707;DHT22;6925;47.816;13.072;2022-09-09T16:43:54;18.10;81.70
13707;DHT22;6925;47.816;13.072;2022-09-09T16:46:22;18.20;81.50
13707;DHT22;6925;47.816;13.072;2022-09-09T16:48:51;18.20;79.50
13707;DHT22;6925;47.816;13.072;2022-09-09T16:51:22;18.10;80.10
13707;DHT22;6925;47.816;13.072;2022-09-09T16:53:50;18.10;79.90
13707;DHT22;6925;47.816;13.072;2022-09-09T16:56:21;18.00;80.60
13707;DHT22;6925;47.816;13.072;2022-09-09T16:58:51;18.10;81.10
13707;DHT22;6925;47.816;13.072;2022-09-09T17:01:21;18.10;81.40
13707;DHT22;6925;47.816;13.072;2022-09-09T17:03:52;18.20;82.10
13707;DHT22;6925;47.816;13.072;2022-09-09T17:06:21;18.20;81.90
13707;DHT22;6925;47.816;13.072;2022-09-09T17:08:54;18.20;81.60
13707;DHT22;6925;47.816;13.072;2022-09-09T17:11:21;18.20;81.50
13707;DHT22;6925;47.816;13.072;2022-09-09T17:13:50;18.20;81.00
13707;DHT22;6925;47.816;13.072;2022-09-09T17:16:19;18.20;81.10
13707;DHT22;6925;47.816;13.072;2022-09-09T17:18:49;18.20;81.20
13707;DHT22;6925;47.816;13.072;2022-09-09T17:21:19;18.20;81.30
13707;DHT22;6925;47.816;13.072;2022-09-09T19:10:54;17.30;81.70
13707;DHT22;6925;47.816;13.072;2022-09-09T19:57:46;17.20;82.60
13707;DHT22;6925;47.816;13.072;2022-09-09T20:03:51;17.30;83.30
13707;DHT22;6925;47.816;13.072;2022-09-09T20:06:28;17.30;82.40
13707;DHT22;6925;47.816;13.072;2022-09-09T20:08:56;17.20;82.20
13707;DHT22;6925;47.816;13.072;2022-09-09T20:21:13;17.30;83.50
13707;DHT22;6925;47.816;13.072;2022-09-09T20:24:06;17.30;83.80
13707;DHT22;6925;47.816;13.072;2022-09-09T20:29:27;17.20;82.40
13707;DHT22;6925;47.816;13.072;2022-09-09T20:31:55;17.20;82.80
13707;DHT22;6925;47.816;13.072;2022-09-09T20:50:10;17.10;83.30
13707;DHT22;6925;47.816;13.072;2022-09-09T20:52:40;17.10;83.00
13707;DHT22;6925;47.816;13.072;2022-09-09T20:55:24;17.10;82.80
13707;DHT22;6925;47.816;13.072;2022-09-09T21:07:08;17.10;82.70
13707;DHT22;6925;47.816;13.072;2022-09-09T21:22:14;16.80;82.40
13707;DHT22;6925;47.816;13.072;2022-09-09T21:28:17;16.90;82.30
13707;DHT22;6925;47.816;13.072;2022-09-09T21:30:53;16.90;82.40
13707;DHT22;6925;47.816;13.072;2022-09-09T21:33:23;16.90;82.20
13707;DHT22;6925;47.816;13.072;2022-09-09T21:39:11;16.80;81.90
13707;DHT22;6925;47.816;13.072;2022-09-09T21:41:54;16.80;82.00
13707;DHT22;6925;47.816;13.072;2022-09-09T21:44:23;16.80;82.00
13707;DHT22;6925;47.816;13.072;2022-09-09T21:46:51;16.80;82.30
13707;DHT22;6925;47.816;13.072;2022-09-09T21:49:20;16.70;81.90
13707;DHT22;6925;47.816;13.072;2022-09-09T21:52:15;16.70;82.20
13707;DHT22;6925;47.816;13.072;2022-09-09T21:54:50;16.70;81.70
13707;DHT22;6925;47.816;13.072;2022-09-09T21:57:24;16.70;82.00
13707;DHT22;6925;47.816;13.072;2022-09-09T22:05:16;16.70;82.10
13707;DHT22;6925;47.816;13.072;2022-09-09T23:11:55;16.90;84.10
13707;DHT22;6925;47.816;13.072;2022-09-09T23:17:48;16.80;84.90
13707;DHT22;6925;47.816;13.072;2022-09-09T23:20:17;16.80;84.40
13707;DHT22;6925;47.816;13.072;2022-09-09T23:22:48;16.80;84.10
13707;DHT22;6925;47.816;13.072;2022-09-09T23:42:34;16.90;85.20
13707;DHT22;6925;47.816;13.072;2022-09-09T23:45:06;16.90;85.50
13707;DHT22;6925;47.816;13.072;2022-09-09T23:55:20;16.70;84.80
13707;DHT22;6925;47.816;13.072;2022-09-09T23:57:58;16.70;85.30
